Time;durP1;ratioP1;P1;durP2;ratioP2;P2;SDS_P1;SDS_P2;PMS_P1;PMS_P2;Temp;Humidity;BMP_temperature;BMP_pressure;BME280_temperature;BME280_humidity;BME280_pressure;Samples;Min_cycle;Max_cycle;Signal;HPM_P1;HPM_P2
2022/12/20 00:01:28;;;;;;;10.57;8.20;;;11.00;99.90;;;;;;5086728;28;20210;-78
2022/12/20 00:03:57;;;;;;;10.53;8.43;;;11.00;99.90;;;;;;5087767;28;20202;-78
2022/12/20 00:06:24;;;;;;;10.30;8.30;;;11.00;99.90;;;;;;5049041;28;20218;-78
2022/12/20 00:08:58;;;;;;;9.83;8.40;;;11.00;99.90;;;;;;5056247;28;20179;-78
2022/12/20 00:11:27;;;;;;;13.20;7.63;;;11.00;99.90;;;;;;5085986;28;20675;-78
2022/12/20 00:13:53;;;;;;;12.20;6.93;;;11.00;99.90;;;;;;5069853;28;20198;-78
2022/12/20 00:16:25;;;;;;;9.57;6.97;;;10.90;99.90;;;;;;5058615;28;20195;-78
2022/12/20 00:18:58;;;;;;;8.40;6.33;;;10.90;99.90;;;;;;5050328;28;20190;-78
2022/12/20 00:21:26;;;;;;;8.27;6.57;;;10.90;99.90;;;;;;5079926;28;20611;-78
2022/12/20 00:23:53;;;;;;;11.53;6.63;;;10.80;99.90;;;;;;5081173;28;20277;-78
2022/12/20 00:26:24;;;;;;;7.97;6.30;;;10.80;99.90;;;;;;5080074;28;20215;-78
2022/12/20 00:28:51;;;;;;;6.87;6.00;;;10.80;99.90;;;;;;5065833;28;20191;-78
2022/12/20 00:31:21;;;;;;;7.17;5.50;;;10.80;99.90;;;;;;5066028;28;20725;-78
2022/12/20 00:33:51;;;;;;;8.80;5.87;;;10.80;99.90;;;;;;5069898;28;20285;-78
2022/12/20 00:36:19;;;;;;;8.83;6.80;;;10.80;99.90;;;;;;5067812;28;20190;-78
2022/12/20 00:38:49;;;;;;;7.47;5.63;;;10.80;99.90;;;;;;5078686;28;20547;-78
2022/12/20 00:41:23;;;;;;;12.67;6.77;;;10.80;99.90;;;;;;5082760;28;20178;-78
2022/12/20 00:43:50;;;;;;;10.00;6.33;;;10.80;99.90;;;;;;5072152;28;20276;-77
2022/12/20 00:46:19;;;;;;;6.57;5.70;;;10.80;99.90;;;;;;5068564;28;20549;-78
2022/12/20 00:48:46;;;;;;;8.47;5.90;;;10.90;99.90;;;;;;5067623;28;20195;-77
2022/12/20 00:51:19;;;;;;;8.93;5.97;;;10.90;99.90;;;;;;5071147;28;20201;-78
2022/12/20 00:53:46;;;;;;;8.17;6.20;;;10.90;99.90;;;;;;5070304;28;20608;-77
2022/12/20 00:56:14;;;;;;;8.13;6.63;;;11.00;99.90;;;;;;5072480;28;20227;-77
2022/12/20 00:58:42;;;;;;;7.17;6.47;;;11.00;99.90;;;;;;5078692;28;20487;-77
2022/12/20 01:01:20;;;;;;;7.20;6.10;;;11.00;99.90;;;;;;5059484;28;20219;-78
2022/12/20 01:03:47;;;;;;;8.70;5.93;;;11.00;99.90;;;;;;5067246;28;20216;-77
2022/12/20 01:06:14;;;;;;;9.87;6.30;;;11.00;99.90;;;;;;5058027;28;20998;-78
2022/12/20 01:08:40;;;;;;;9.37;5.93;;;11.10;99.90;;;;;;5065952;28;20193;-78
2022/12/20 01:11:27;;;;;;;8.70;5.97;;;11.20;99.90;;;;;;5067024;28;20757;-78
2022/12/20 01:14:01;;;;;;;8.27;6.37;;;11.10;99.90;;;;;;5079961;28;20295;-78
2022/12/20 01:16:37;;;;;;;7.67;6.17;;;11.10;99.90;;;;;;5065400;28;20190;-78
2022/12/20 01:19:06;;;;;;;8.00;6.13;;;11.10;99.90;;;;;;5059564;28;20194;-78
2022/12/20 01:21:33;;;;;;;8.57;5.83;;;11.10;99.90;;;;;;5079864;28;20199;-78
2022/12/20 01:23:59;;;;;;;8.50;5.80;;;11.20;99.90;;;;;;5082002;28;20186;-78
2022/12/20 01:26:29;;;;;;;8.23;6.40;;;11.20;99.90;;;;;;5067917;28;20614;-78
2022/12/20 01:28:59;;;;;;;7.73;6.33;;;11.30;99.90;;;;;;5065305;28;20198;-78
2022/12/20 01:31:27;;;;;;;9.50;6.10;;;11.30;99.90;;;;;;5070420;28;20251;-78
2022/12/20 01:33:53;;;;;;;7.30;6.03;;;11.30;99.90;;;;;;5066215;28;20186;-78
2022/12/20 01:36:24;;;;;;;8.97;6.57;;;11.30;99.90;;;;;;5048434;28;20201;-78
2022/12/20 01:38:59;;;;;;;9.77;6.67;;;11.30;99.90;;;;;;5067279;28;20229;-78
2022/12/20 01:41:31;;;;;;;9.83;6.57;;;11.20;99.90;;;;;;5049398;28;20220;-78
2022/12/20 01:44:05;;;;;;;9.30;7.00;;;11.20;99.90;;;;;;5066071;28;20255;-78
2022/12/20 01:46:35;;;;;;;8.37;6.60;;;11.20;99.90;;;;;;5048255;28;20298;-77
2022/12/20 01:49:07;;;;;;;8.77;7.10;;;11.20;99.90;;;;;;5066146;28;20252;-78
2022/12/20 01:51:39;;;;;;;9.20;7.00;;;11.20;99.90;;;;;;5081667;28;20194;-78
2022/12/20 01:54:25;;;;;;;10.97;6.70;;;11.20;99.90;;;;;;5066487;28;20294;-78
2022/12/20 01:57:00;;;;;;;8.43;7.53;;;11.10;99.90;;;;;;5068172;28;20187;-78
2022/12/20 01:59:30;;;;;;;10.97;7.40;;;11.10;99.90;;;;;;5067898;28;20195;-77
2022/12/20 02:02:02;;;;;;;9.63;7.07;;;11.10;99.90;;;;;;5067907;28;20281;-77
2022/12/20 02:04:28;;;;;;;10.07;7.70;;;11.10;99.90;;;;;;5097461;28;20285;-78
2022/12/20 02:06:56;;;;;;;10.97;8.07;;;11.20;99.90;;;;;;5061582;28;20211;-78
2022/12/20 02:09:23;;;;;;;8.63;7.20;;;11.20;99.90;;;;;;5069789;28;20182;-78
2022/12/20 02:12:02;;;;;;;10.50;7.10;;;11.30;99.90;;;;;;5067647;28;20270;-78
2022/12/20 02:15:05;;;;;;;7.90;7.10;;;11.30;99.90;;;;;;5064078;28;20233;-78
2022/12/20 02:18:09;;;;;;;7.67;6.87;;;11.30;99.90;;;;;;5065540;28;20538;-78
2022/12/20 02:20:41;;;;;;;8.27;7.00;;;11.30;99.90;;;;;;5069936;28;20229;-78
2022/12/20 02:23:45;;;;;;;7.40;6.60;;;11.30;99.90;;;;;;5062428;28;20265;-78
2022/12/20 02:26:29;;;;;;;11.80;6.80;;;11.30;99.90;;;;;;5064771;28;20213;-78
2022/12/20 02:29:47;;;;;;;6.90;5.57;;;11.30;99.90;;;;;;5088350;28;20599;-78
2022/12/20 02:32:29;;;;;;;6.30;4.93;;;11.40;99.90;;;;;;5057965;28;20275;-78
2022/12/20 02:34:56;;;;;;;5.80;5.17;;;11.40;99.90;;;;;;5071435;28;20651;-78
2022/12/20 02:37:23;;;;;;;8.50;5.30;;;11.50;99.90;;;;;;5086411;28;20197;-78
2022/12/20 02:39:50;;;;;;;7.63;5.73;;;11.60;99.90;;;;;;5069765;28;20194;-78
2022/12/20 02:42:22;;;;;;;9.40;5.47;;;11.70;99.90;;;;;;5073133;28;20198;-78
2022/12/20 02:45:14;;;;;;;8.87;5.30;;;11.70;99.90;;;;;;5070583;28;20183;-78
2022/12/20 02:48:09;;;;;;;6.90;5.00;;;11.90;99.90;;;;;;5092655;28;20273;-78
2022/12/20 02:50:48;;;;;;;6.40;5.23;;;11.90;99.90;;;;;;5101667;28;20191;-78
2022/12/20 02:53:17;;;;;;;6.23;5.20;;;11.90;99.90;;;;;;5047085;28;20183;-78
2022/12/20 02:56:10;;;;;;;7.13;4.60;;;11.90;99.90;;;;;;5055015;28;20190;-76
2022/12/20 02:59:17;;;;;;;7.23;4.90;;;11.90;99.90;;;;;;5106727;28;20290;-76
2022/12/20 03:01:56;;;;;;;8.90;4.73;;;11.80;99.90;;;;;;5079821;28;20200;-76
2022/12/20 03:04:30;;;;;;;6.03;4.73;;;11.80;99.90;;;;;;5086355;28;20213;-76
2022/12/20 03:07:07;;;;;;;7.10;5.07;;;11.80;99.90;;;;;;5084438;28;20226;-76
2022/12/20 03:09:39;;;;;;;5.93;4.90;;;11.90;99.90;;;;;;5087249;28;20190;-76
2022/12/20 03:12:08;;;;;;;6.60;4.40;;;11.90;99.90;;;;;;5086548;28;20179;-76
2022/12/20 03:14:34;;;;;;;5.87;4.80;;;11.80;99.90;;;;;;5085888;28;20238;-76
2022/12/20 03:17:01;;;;;;;6.77;4.47;;;11.80;99.90;;;;;;5101286;28;20202;-76
2022/12/20 03:19:29;;;;;;;5.20;4.30;;;11.70;99.90;;;;;;5086470;28;20221;-76
2022/12/20 03:21:55;;;;;;;4.73;3.77;;;11.70;99.90;;;;;;5087813;28;20195;-76
2022/12/20 03:24:23;;;;;;;5.53;3.87;;;11.60;99.90;;;;;;5088545;28;20361;-76
2022/12/20 03:26:50;;;;;;;4.33;3.50;;;11.50;99.90;;;;;;5082074;28;20217;-76
2022/12/20 03:29:16;;;;;;;5.40;3.77;;;11.40;99.90;;;;;;5070944;28;20269;-76
2022/12/20 03:31:43;;;;;;;6.33;3.90;;;11.40;99.90;;;;;;5077880;28;20519;-76
2022/12/20 03:34:10;;;;;;;5.63;3.80;;;11.30;99.90;;;;;;5087381;28;20179;-76
2022/12/20 03:36:37;;;;;;;10.43;3.90;;;11.50;99.90;;;;;;5087574;28;20197;-76
2022/12/20 03:39:03;;;;;;;6.60;3.90;;;11.60;99.90;;;;;;5085154;28;20191;-76
2022/12/20 03:41:30;;;;;;;5.07;3.63;;;11.70;99.90;;;;;;5085310;28;20194;-76
2022/12/20 03:43:56;;;;;;;7.83;3.43;;;11.80;99.90;;;;;;5093553;28;20196;-76
2022/12/20 03:46:24;;;;;;;5.53;3.20;;;11.80;99.90;;;;;;5084674;28;20213;-76
2022/12/20 03:48:50;;;;;;;8.10;3.77;;;11.80;99.90;;;;;;5100639;28;20206;-76
2022/12/20 03:51:17;;;;;;;5.03;3.77;;;11.90;99.90;;;;;;5069011;28;20187;-76
2022/12/20 03:53:43;;;;;;;5.27;3.53;;;11.90;99.90;;;;;;5078602;28;20183;-76
2022/12/20 03:56:09;;;;;;;7.43;3.67;;;11.90;99.90;;;;;;5087155;28;20218;-76
2022/12/20 03:58:36;;;;;;;8.47;3.60;;;11.80;99.90;;;;;;5075547;28;20264;-76
2022/12/20 04:01:14;;;;;;;6.47;3.50;;;11.80;99.90;;;;;;5085284;28;20191;-76
2022/12/20 04:03:41;;;;;;;4.77;3.73;;;11.70;99.90;;;;;;5100842;28;20186;-76
2022/12/20 04:06:07;;;;;;;6.57;3.50;;;11.70;99.90;;;;;;5084301;28;20206;-76
2022/12/20 04:08:33;;;;;;;4.10;3.50;;;11.70;99.90;;;;;;5100664;28;20195;-76
2022/12/20 04:11:15;;;;;;;7.23;3.67;;;11.70;99.90;;;;;;5090966;28;20277;-76
2022/12/20 04:13:47;;;;;;;5.93;4.13;;;11.70;99.90;;;;;;5102253;28;20189;-75
2022/12/20 04:16:19;;;;;;;6.83;3.40;;;11.70;99.90;;;;;;5109853;28;20187;-76
2022/12/20 04:18:46;;;;;;;7.13;3.97;;;11.60;99.90;;;;;;5086823;28;20199;-76
2022/12/20 04:21:14;;;;;;;7.90;4.00;;;11.50;99.90;;;;;;5097842;28;20228;-75
2022/12/20 04:23:42;;;;;;;6.77;3.87;;;11.50;99.90;;;;;;5087008;28;20191;-76
2022/12/20 04:26:12;;;;;;;4.73;3.43;;;11.40;99.90;;;;;;5079969;28;20642;-75
2022/12/20 04:28:38;;;;;;;6.50;3.97;;;11.30;99.90;;;;;;5091289;28;20190;-76
2022/12/20 04:31:05;;;;;;;12.07;4.00;;;11.30;99.90;;;;;;5086772;28;20190;-76
2022/12/20 04:33:33;;;;;;;5.50;4.50;;;11.30;99.90;;;;;;5097706;28;20182;-76
2022/12/20 04:35:59;;;;;;;7.33;4.33;;;11.20;99.90;;;;;;5086594;28;20203;-76
2022/12/20 04:38:27;;;;;;;6.57;4.00;;;11.10;99.90;;;;;;5082590;28;20210;-76
2022/12/20 04:40:55;;;;;;;7.50;4.47;;;11.00;99.90;;;;;;5084772;28;20663;-76
2022/12/20 04:43:24;;;;;;;10.33;4.40;;;11.00;99.90;;;;;;5094983;28;20197;-75
2022/12/20 04:45:55;;;;;;;9.17;4.83;;;11.00;99.90;;;;;;5082288;28;20196;-76
2022/12/20 04:48:25;;;;;;;7.80;4.90;;;11.00;99.90;;;;;;5101740;28;20611;-76
2022/12/20 04:50:54;;;;;;;7.63;4.40;;;11.00;99.90;;;;;;5087878;28;20190;-76
2022/12/20 04:56:07;;;;;;;6.67;5.20;;;11.00;99.90;;;;;;5104469;28;20186;-76
2022/12/20 04:58:33;;;;;;;5.87;4.77;;;11.00;99.90;;;;;;5103729;28;20190;-76
2022/12/20 05:01:00;;;;;;;8.97;5.50;;;11.00;99.90;;;;;;5067844;28;20191;-76
2022/12/20 05:03:27;;;;;;;7.27;5.20;;;11.00;99.90;;;;;;5085473;28;20205;-76
2022/12/20 05:05:55;;;;;;;7.30;5.00;;;11.00;99.90;;;;;;5067000;28;20207;-75
2022/12/20 05:08:21;;;;;;;7.87;5.70;;;11.10;99.90;;;;;;5084156;28;20215;-76
2022/12/20 05:10:48;;;;;;;8.87;5.10;;;11.10;99.90;;;;;;5076547;28;20651;-76
2022/12/20 05:13:15;;;;;;;9.10;5.40;;;11.20;99.90;;;;;;5059286;28;20186;-76
2022/12/20 05:15:42;;;;;;;7.93;5.53;;;11.20;99.90;;;;;;5084126;28;20206;-75
2022/12/20 05:18:09;;;;;;;7.97;5.53;;;11.20;99.90;;;;;;5090150;28;20206;-76
2022/12/20 05:20:35;;;;;;;9.20;5.67;;;11.30;99.90;;;;;;5075739;28;20187;-76
2022/12/20 05:28:35;;;;;;;6.57;5.13;;;11.70;99.90;;;;;;5082480;28;20187;-76
2022/12/20 05:31:03;;;;;;;8.20;5.50;;;11.60;99.90;;;;;;5083560;28;20547;-76
2022/12/20 05:33:30;;;;;;;12.07;6.57;;;11.70;99.90;;;;;;5067639;28;20264;-76
2022/12/20 05:35:56;;;;;;;8.10;5.90;;;11.70;99.90;;;;;;5084935;28;20254;-76
2022/12/20 05:38:23;;;;;;;7.53;6.20;;;11.70;99.90;;;;;;5102316;28;20186;-76
2022/12/20 05:40:50;;;;;;;10.27;7.50;;;11.80;99.90;;;;;;5087893;28;20194;-76
2022/12/20 05:43:18;;;;;;;9.27;7.00;;;11.80;99.90;;;;;;5089206;28;20197;-76
2022/12/20 05:45:51;;;;;;;10.73;6.87;;;11.80;99.90;;;;;;5091383;28;20214;-76
2022/12/20 05:48:21;;;;;;;8.70;7.77;;;11.80;99.90;;;;;;5079551;28;20187;-76
2022/12/20 05:50:48;;;;;;;12.67;8.50;;;11.80;99.90;;;;;;5081557;28;20226;-76
2022/12/20 05:53:17;;;;;;;15.43;11.00;;;12.00;99.90;;;;;;5085602;28;20166;-76
2022/12/20 05:55:47;;;;;;;18.33;10.90;;;12.20;99.90;;;;;;5080019;28;20192;-76
2022/12/20 05:58:14;;;;;;;12.47;10.97;;;12.30;99.90;;;;;;5069505;28;20198;-75
2022/12/20 06:00:42;;;;;;;13.97;11.63;;;12.50;99.90;;;;;;5064147;28;20217;-76
2022/12/20 06:03:17;;;;;;;16.47;12.13;;;12.60;99.90;;;;;;5117148;28;20224;-76
2022/12/20 06:05:44;;;;;;;16.33;12.83;;;12.70;99.90;;;;;;5082431;28;20206;-76
2022/12/20 06:08:11;;;;;;;18.00;12.37;;;12.80;99.90;;;;;;5066667;28;20248;-76
2022/12/20 06:10:40;;;;;;;14.23;11.70;;;12.90;99.90;;;;;;5083835;28;20205;-76
2022/12/20 06:13:09;;;;;;;17.30;11.90;;;13.00;99.90;;;;;;5069373;28;20194;-76
2022/12/20 06:15:37;;;;;;;16.53;12.10;;;13.00;99.90;;;;;;5086245;28;20204;-76
2022/12/20 06:18:04;;;;;;;18.87;13.33;;;13.00;99.90;;;;;;5081784;28;20214;-76
2022/12/20 06:20:32;;;;;;;15.90;12.57;;;13.20;99.90;;;;;;5094811;28;20258;-76
2022/12/20 06:22:59;;;;;;;15.03;12.83;;;13.30;99.90;;;;;;5083590;28;20238;-76
2022/12/20 06:25:27;;;;;;;17.87;13.73;;;13.30;99.90;;;;;;5082711;28;20197;-76
2022/12/20 06:27:54;;;;;;;16.50;14.20;;;13.50;99.90;;;;;;5099369;28;20175;-76
2022/12/20 06:30:20;;;;;;;18.90;13.73;;;13.50;99.90;;;;;;5113015;28;20182;-75
2022/12/20 06:32:47;;;;;;;17.00;13.43;;;13.60;99.90;;;;;;5084535;28;20269;-76
2022/12/20 06:35:15;;;;;;;15.67;13.07;;;13.60;99.90;;;;;;5071921;28;20194;-76
2022/12/20 06:37:44;;;;;;;17.20;14.17;;;13.60;99.90;;;;;;5065996;28;20186;-76
2022/12/20 06:40:13;;;;;;;19.57;15.00;;;13.60;99.90;;;;;;5049892;28;20184;-76
2022/12/20 06:42:40;;;;;;;15.70;14.00;;;13.70;99.90;;;;;;5084986;28;20182;-76
2022/12/20 06:45:09;;;;;;;16.17;13.70;;;13.80;99.90;;;;;;5073806;28;20244;-76
2022/12/20 06:47:36;;;;;;;19.43;13.30;;;13.90;99.90;;;;;;5094689;28;20203;-76
2022/12/20 06:50:04;;;;;;;16.73;13.17;;;13.90;99.90;;;;;;5086423;28;20276;-76
2022/12/20 06:52:32;;;;;;;16.60;13.50;;;14.00;99.90;;;;;;5094035;28;20263;-76
2022/12/20 06:54:58;;;;;;;17.90;14.10;;;14.10;99.90;;;;;;5082788;28;20866;-76
2022/12/20 06:57:25;;;;;;;19.30;14.47;;;14.10;99.90;;;;;;5082886;28;20194;-76
2022/12/20 06:59:52;;;;;;;16.33;13.77;;;14.20;99.90;;;;;;5085867;28;20218;-76
2022/12/20 07:02:18;;;;;;;16.90;13.40;;;14.10;99.90;;;;;;5083757;28;20194;-76
2022/12/20 07:04:46;;;;;;;14.77;13.17;;;14.20;99.90;;;;;;5077282;28;20293;-76
2022/12/20 07:07:13;;;;;;;18.77;13.97;;;14.20;99.90;;;;;;5099776;28;20214;-76
2022/12/20 07:09:41;;;;;;;20.60;13.97;;;14.30;99.90;;;;;;5081549;28;20183;-76
2022/12/20 07:12:08;;;;;;;15.90;12.10;;;14.40;99.90;;;;;;5092104;28;20226;-76
2022/12/20 07:14:35;;;;;;;20.23;13.43;;;14.40;99.90;;;;;;5084310;28;20233;-76
2022/12/20 07:17:03;;;;;;;20.20;13.50;;;14.50;99.90;;;;;;5104665;28;20195;-76
2022/12/20 07:19:29;;;;;;;17.87;13.07;;;14.50;99.90;;;;;;5085502;28;20208;-76
2022/12/20 07:21:56;;;;;;;20.17;13.07;;;14.60;99.90;;;;;;5081384;28;20191;-76
2022/12/20 07:24:23;;;;;;;16.80;12.73;;;14.70;99.90;;;;;;5083093;28;20245;-76
2022/12/20 07:26:50;;;;;;;14.20;11.80;;;14.70;99.90;;;;;;5082350;28;20202;-76
2022/12/20 07:29:18;;;;;;;16.33;12.47;;;14.70;99.90;;;;;;5078235;28;20248;-76
2022/12/20 07:31:45;;;;;;;16.93;12.00;;;14.70;99.90;;;;;;5080259;28;20563;-76
2022/12/20 07:34:11;;;;;;;16.83;13.07;;;14.80;99.90;;;;;;5085113;28;20504;-77
2022/12/20 07:36:37;;;;;;;16.33;12.13;;;14.80;99.90;;;;;;5079655;28;20229;-76
2022/12/20 07:39:04;;;;;;;16.90;12.67;;;14.80;99.90;;;;;;5085563;28;20237;-76
2022/12/20 07:41:31;;;;;;;16.90;12.43;;;14.80;99.90;;;;;;5063268;28;20171;-76
2022/12/20 07:43:58;;;;;;;15.90;11.93;;;14.70;99.90;;;;;;5072902;28;20213;-76
2022/12/20 07:46:25;;;;;;;14.90;12.27;;;14.70;99.90;;;;;;5081876;28;20203;-76
2022/12/20 07:48:52;;;;;;;14.73;11.60;;;14.60;99.90;;;;;;5060174;28;20237;-76
2022/12/20 07:51:35;;;;;;;15.23;12.13;;;14.80;99.90;;;;;;5079255;28;20186;-76
2022/12/20 07:54:11;;;;;;;14.63;11.50;;;14.80;99.90;;;;;;5081562;28;20194;-76
2022/12/20 07:56:45;;;;;;;15.83;12.23;;;14.80;99.90;;;;;;5062524;28;20240;-76
2022/12/20 07:59:16;;;;;;;16.63;12.13;;;14.90;99.90;;;;;;5114191;28;20182;-76
2022/12/20 08:01:46;;;;;;;12.83;11.17;;;14.90;99.90;;;;;;5081995;28;20194;-76
2022/12/20 08:04:22;;;;;;;21.27;12.97;;;14.90;99.90;;;;;;5066041;28;20195;-76
2022/12/20 08:06:55;;;;;;;14.60;11.53;;;14.90;99.90;;;;;;5100515;28;20214;-76
2022/12/20 08:09:25;;;;;;;15.47;12.33;;;14.80;99.90;;;;;;5062640;28;20184;-76
2022/12/20 08:11:54;;;;;;;17.57;11.87;;;14.80;99.90;;;;;;5083432;28;20179;-76
2022/12/20 08:14:21;;;;;;;16.37;12.20;;;14.90;99.90;;;;;;5078497;28;20187;-76
2022/12/20 08:16:48;;;;;;;13.30;11.53;;;14.80;99.90;;;;;;5057268;28;20193;-76
2022/12/20 08:19:14;;;;;;;13.73;11.47;;;14.70;99.90;;;;;;5073648;28;20190;-76
2022/12/20 08:21:41;;;;;;;15.03;11.87;;;14.70;99.90;;;;;;5082751;28;20293;-76
2022/12/20 08:24:08;;;;;;;18.60;12.90;;;14.80;99.90;;;;;;5082625;28;20283;-76
2022/12/20 08:26:42;;;;;;;15.67;12.83;;;14.80;99.90;;;;;;5062043;28;20580;-76
2022/12/20 08:29:09;;;;;;;13.97;11.67;;;14.80;99.90;;;;;;5080179;28;20197;-76
2022/12/20 08:31:43;;;;;;;14.90;11.70;;;14.90;99.90;;;;;;5087295;28;20206;-76
2022/12/20 08:34:10;;;;;;;14.17;12.13;;;15.00;99.90;;;;;;5088314;28;20664;-76
2022/12/20 08:36:37;;;;;;;14.20;11.13;;;15.00;99.90;;;;;;5084794;28;20194;-77
2022/12/20 08:39:06;;;;;;;14.70;11.10;;;15.00;99.90;;;;;;5077431;28;20229;-76
2022/12/20 08:41:36;;;;;;;15.77;11.33;;;15.10;99.90;;;;;;5074766;28;20203;-76
2022/12/20 08:44:04;;;;;;;18.37;11.57;;;15.10;99.90;;;;;;5073101;28;20194;-76
2022/12/20 08:46:30;;;;;;;15.37;11.43;;;15.10;99.90;;;;;;5061450;28;20206;-76
2022/12/20 08:48:56;;;;;;;18.83;11.97;;;15.10;99.90;;;;;;5096437;28;20247;-76
2022/12/20 08:51:23;;;;;;;14.83;11.33;;;15.10;99.90;;;;;;5080356;28;20217;-76
2022/12/20 08:53:49;;;;;;;15.27;11.20;;;15.20;99.90;;;;;;5084334;28;20646;-76
2022/12/20 08:56:17;;;;;;;14.50;11.80;;;15.10;99.90;;;;;;5082073;28;20190;-76
2022/12/20 08:58:44;;;;;;;15.53;12.37;;;15.10;99.90;;;;;;5074725;28;20194;-77
2022/12/20 09:01:18;;;;;;;14.63;11.77;;;15.10;99.90;;;;;;5080048;28;20187;-76
2022/12/20 09:03:47;;;;;;;18.90;12.70;;;15.00;99.90;;;;;;5096188;28;20190;-77
2022/12/20 09:06:20;;;;;;;15.43;11.87;;;15.10;99.90;;;;;;5066304;28;20207;-77
2022/12/20 09:08:48;;;;;;;17.27;11.87;;;15.20;99.90;;;;;;5077232;28;20186;-76
2022/12/20 09:11:20;;;;;;;15.83;12.20;;;15.20;99.90;;;;;;5078725;28;20186;-76
2022/12/20 09:13:49;;;;;;;15.60;11.47;;;15.20;99.90;;;;;;5079766;28;20241;-77
2022/12/20 09:16:20;;;;;;;15.10;11.57;;;15.30;99.90;;;;;;5063314;28;20175;-77
2022/12/20 09:18:55;;;;;;;12.90;10.17;;;15.30;99.90;;;;;;5081210;28;20190;-76
2022/12/20 09:21:23;;;;;;;13.77;10.47;;;15.40;99.90;;;;;;5094010;28;20209;-76
2022/12/20 09:23:51;;;;;;;14.83;10.93;;;15.40;99.90;;;;;;5094459;28;20195;-77
2022/12/20 09:26:20;;;;;;;12.97;9.87;;;15.40;99.90;;;;;;5095530;28;20199;-76
2022/12/20 09:28:47;;;;;;;11.47;9.77;;;15.40;99.90;;;;;;5093381;28;20240;-77
2022/12/20 09:31:19;;;;;;;12.37;9.43;;;15.40;99.90;;;;;;5092072;28;20182;-76
2022/12/20 09:33:46;;;;;;;14.10;9.50;;;15.40;99.90;;;;;;5068105;28;20196;-76
2022/12/20 09:36:19;;;;;;;13.00;10.53;;;15.40;99.90;;;;;;5074344;28;20206;-76
2022/12/20 09:38:47;;;;;;;16.07;11.53;;;15.50;99.90;;;;;;5087564;28;20196;-76
2022/12/20 09:41:40;;;;;;;14.67;11.40;;;15.50;99.90;;;;;;5080549;28;20513;-77
2022/12/20 09:44:29;;;;;;;14.20;10.83;;;15.50;99.90;;;;;;5092536;28;20179;-76
2022/12/20 09:47:08;;;;;;;13.67;11.23;;;15.60;99.90;;;;;;5084700;28;22032;-76
2022/12/20 09:49:42;;;;;;;17.07;11.17;;;15.70;99.90;;;;;;5091025;28;20190;-76
2022/12/20 09:52:36;;;;;;;12.97;10.20;;;15.70;99.90;;;;;;5091113;28;20236;-76
2022/12/20 09:55:34;;;;;;;17.57;10.27;;;15.80;99.90;;;;;;5089547;28;20501;-76
2022/12/20 09:58:09;;;;;;;13.17;9.77;;;15.90;99.90;;;;;;5089340;28;20206;-76
2022/12/20 10:00:48;;;;;;;15.53;9.47;;;16.10;99.90;;;;;;5073634;28;20309;-76
2022/12/20 10:03:29;;;;;;;12.77;10.27;;;16.20;99.90;;;;;;5085127;28;20186;-77
2022/12/20 10:06:01;;;;;;;14.27;9.97;;;16.20;99.90;;;;;;5056733;28;20273;-77
2022/12/20 10:08:56;;;;;;;14.17;9.67;;;16.20;99.90;;;;;;5077282;28;20193;-76
2022/12/20 10:11:56;;;;;;;15.37;9.70;;;16.20;99.90;;;;;;5055696;28;20183;-77
2022/12/20 10:15:06;;;;;;;11.83;9.10;;;16.20;99.90;;;;;;5087101;28;20190;-76
2022/12/20 10:17:46;;;;;;;12.17;9.10;;;16.20;99.90;;;;;;5065967;28;20194;-77
2022/12/20 10:20:42;;;;;;;11.83;9.67;;;16.20;99.90;;;;;;5076967;28;20195;-76
2022/12/20 10:23:24;;;;;;;16.77;10.80;;;16.30;99.90;;;;;;5068152;28;20270;-77
2022/12/20 10:25:55;;;;;;;15.90;10.27;;;16.30;99.90;;;;;;5071488;28;20210;-77
2022/12/20 10:28:32;;;;;;;14.30;10.50;;;16.30;99.90;;;;;;5073163;28;20411;-77
2022/12/20 10:31:11;;;;;;;14.27;10.20;;;16.30;99.90;;;;;;5072555;28;20183;-77
2022/12/20 10:33:38;;;;;;;11.40;10.20;;;16.40;99.90;;;;;;5073210;28;20197;-77
2022/12/20 10:36:40;;;;;;;12.97;10.50;;;16.40;99.90;;;;;;5087626;28;20192;-77
2022/12/20 10:39:09;;;;;;;12.63;10.47;;;16.40;99.90;;;;;;5013758;28;20235;-77
2022/12/20 10:41:42;;;;;;;19.80;10.53;;;16.40;99.90;;;;;;5061899;28;20194;-77
2022/12/20 10:44:21;;;;;;;12.80;10.53;;;16.40;99.90;;;;;;5056569;28;20281;-76
2022/12/20 10:46:58;;;;;;;12.93;10.47;;;16.30;99.90;;;;;;5074560;28;20211;-77
2022/12/20 10:49:39;;;;;;;12.23;9.27;;;16.30;99.90;;;;;;5061843;28;20187;-77
2022/12/20 10:52:08;;;;;;;12.13;10.80;;;16.20;99.90;;;;;;5084989;28;20210;-77
2022/12/20 10:54:38;;;;;;;16.47;10.13;;;16.20;99.90;;;;;;5078549;28;20274;-76
2022/12/20 10:57:25;;;;;;;17.17;10.20;;;16.10;99.90;;;;;;5078105;28;20193;-77
2022/12/20 10:59:56;;;;;;;11.63;9.33;;;16.10;99.90;;;;;;5078657;28;20255;-77
2022/12/20 11:02:40;;;;;;;15.57;9.77;;;16.10;99.90;;;;;;5065548;28;20187;-76
2022/12/20 11:05:19;;;;;;;11.87;9.60;;;16.10;99.90;;;;;;5060005;28;20260;-76
2022/12/20 11:08:15;;;;;;;13.67;9.07;;;16.10;99.90;;;;;;5071683;28;20219;-77
2022/12/20 11:10:42;;;;;;;12.97;8.83;;;16.30;99.90;;;;;;5056018;28;20191;-77
2022/12/20 11:13:28;;;;;;;12.63;8.63;;;16.40;99.90;;;;;;5075204;28;20187;-77
2022/12/20 11:16:00;;;;;;;12.27;8.53;;;16.50;99.90;;;;;;5073734;28;20190;-77
2022/12/20 11:18:46;;;;;;;12.83;8.70;;;16.60;99.90;;;;;;5073656;28;20699;-77
2022/12/20 11:21:30;;;;;;;12.00;9.13;;;16.60;99.90;;;;;;5073234;28;20301;-77
2022/12/20 11:24:25;;;;;;;10.83;9.10;;;16.60;99.90;;;;;;5070579;28;20214;-77
2022/12/20 11:27:06;;;;;;;11.37;8.50;;;16.60;99.90;;;;;;5072722;28;20214;-77
2022/12/20 11:30:09;;;;;;;11.57;8.70;;;16.50;99.90;;;;;;5073361;28;20183;-77
2022/12/20 11:32:54;;;;;;;14.00;10.17;;;16.40;99.90;;;;;;5091660;28;20635;-77
2022/12/20 11:35:41;;;;;;;12.50;9.47;;;16.30;99.90;;;;;;5090215;28;20199;-77
2022/12/20 11:38:40;;;;;;;11.67;8.87;;;16.30;99.90;;;;;;5076130;28;20198;-77
2022/12/20 11:41:44;;;;;;;12.63;9.23;;;16.40;99.90;;;;;;5089349;28;20194;-77
2022/12/20 11:44:45;;;;;;;12.73;9.13;;;16.40;99.90;;;;;;5063464;28;20661;-77
2022/12/20 11:47:43;;;;;;;12.03;8.97;;;16.30;99.90;;;;;;5073222;28;20219;-77
2022/12/20 11:50:47;;;;;;;17.57;9.63;;;16.30;99.90;;;;;;5058319;28;20231;-77
2022/12/20 11:53:42;;;;;;;11.67;9.10;;;16.20;99.90;;;;;;5058268;28;20245;-77
2022/12/20 11:56:24;;;;;;;11.00;9.80;;;16.20;99.90;;;;;;5058087;28;20278;-77
2022/12/20 11:59:02;;;;;;;13.50;9.80;;;16.10;99.90;;;;;;5071127;28;20195;-77
2022/12/20 12:01:43;;;;;;;12.53;8.93;;;16.10;99.90;;;;;;5084647;28;20198;-76
2022/12/20 12:04:26;;;;;;;13.10;10.00;;;16.10;99.90;;;;;;5076554;28;20194;-76
2022/12/20 12:07:23;;;;;;;12.40;8.67;;;16.20;99.90;;;;;;5076136;28;20205;-76
2022/12/20 12:10:31;;;;;;;15.60;9.67;;;16.30;99.90;;;;;;5078289;28;20198;-77
2022/12/20 12:13:09;;;;;;;14.17;9.40;;;16.30;99.90;;;;;;5075408;28;20179;-77
2022/12/20 12:16:02;;;;;;;13.13;9.50;;;16.40;99.90;;;;;;5075004;28;20308;-77
2022/12/20 12:18:33;;;;;;;16.17;9.77;;;16.40;99.90;;;;;;5076598;28;20187;-77
2022/12/20 12:21:27;;;;;;;11.93;8.83;;;16.60;99.90;;;;;;5076503;28;20195;-77
2022/12/20 12:24:20;;;;;;;12.53;9.10;;;16.70;99.90;;;;;;5058234;28;20210;-77
2022/12/20 12:26:46;;;;;;;14.47;9.00;;;16.70;99.90;;;;;;5071825;28;20226;-77
2022/12/20 12:29:16;;;;;;;11.53;8.40;;;16.70;99.90;;;;;;5074219;28;20183;-76
2022/12/20 12:32:23;;;;;;;10.60;8.50;;;16.80;99.90;;;;;;5076311;28;20194;-76
2022/12/20 12:35:27;;;;;;;10.60;9.07;;;16.70;99.90;;;;;;5075255;28;20636;-77
2022/12/20 12:38:27;;;;;;;12.00;8.93;;;16.70;99.90;;;;;;5075223;28;20179;-77
2022/12/20 12:41:32;;;;;;;14.30;8.80;;;16.80;99.90;;;;;;5074484;28;20210;-77
2022/12/20 12:44:17;;;;;;;16.13;9.13;;;16.70;99.90;;;;;;5070993;28;20249;-77
2022/12/20 12:46:51;;;;;;;12.17;8.03;;;16.70;99.90;;;;;;5052081;28;20219;-77
2022/12/20 12:49:26;;;;;;;9.53;8.07;;;16.70;99.90;;;;;;5078664;28;20663;-77
2022/12/20 12:52:03;;;;;;;16.77;8.33;;;16.70;99.90;;;;;;5067235;28;20179;-77
2022/12/20 12:54:40;;;;;;;12.70;8.43;;;16.70;99.90;;;;;;5037060;28;20183;-76
2022/12/20 12:57:16;;;;;;;10.27;7.93;;;16.70;99.90;;;;;;5072246;28;20186;-77
2022/12/20 12:59:48;;;;;;;9.03;7.47;;;16.60;99.90;;;;;;5074418;28;20651;-76
2022/12/20 13:02:14;;;;;;;13.60;7.90;;;16.60;99.90;;;;;;5074023;28;20194;-76
2022/12/20 13:04:59;;;;;;;10.17;7.23;;;16.60;99.90;;;;;;5074416;28;20244;-76
2022/12/20 13:07:32;;;;;;;9.90;7.50;;;16.50;99.90;;;;;;5073478;28;20679;-76
2022/12/20 13:10:23;;;;;;;10.00;7.07;;;16.50;99.90;;;;;;5075958;28;20212;-76
2022/12/20 13:12:51;;;;;;;12.93;7.50;;;16.50;99.90;;;;;;5052619;28;20194;-76
2022/12/20 13:15:20;;;;;;;10.40;8.00;;;16.40;99.90;;;;;;5067225;28;20240;-76
2022/12/20 13:18:15;;;;;;;9.00;7.67;;;16.40;99.90;;;;;;5074386;28;20187;-76
2022/12/20 13:21:21;;;;;;;10.30;7.10;;;16.40;99.90;;;;;;5076865;28;20183;-77